createdAt,value
2019-04-16T00:00:12.029Z,49.58
2019-04-16T00:01:11.210Z,49.83
2019-04-16T00:02:10.892Z,49.83
2019-04-16T00:03:10.895Z,49.8
2019-04-16T00:04:10.890Z,49.91
2019-04-16T00:05:11.111Z,49.97
2019-04-16T00:06:10.852Z,49.98
2019-04-16T00:07:10.858Z,50.15
2019-04-16T00:08:26.430Z,50.17
2019-04-16T00:09:10.877Z,50.1
2019-04-16T00:10:10.848Z,50.04
2019-04-16T00:11:10.850Z,50.03
2019-04-16T00:12:10.850Z,50.38
2019-04-16T00:13:10.929Z,50.34
2019-04-16T00:14:10.854Z,50.46
2019-04-16T00:15:10.861Z,50.37
2019-04-16T00:16:12.930Z,50.21
2019-04-16T00:17:13.136Z,50.24
2019-04-16T00:18:10.925Z,50.14
2019-04-16T00:19:10.881Z,50.14
2019-04-16T00:20:10.866Z,50.1
2019-04-16T00:21:10.863Z,49.92
2019-04-16T00:22:12.312Z,50.07
2019-04-16T00:23:10.900Z,49.97
2019-04-16T00:24:10.891Z,50.07
2019-04-16T00:25:10.866Z,50.29
2019-04-16T00:26:10.947Z,50.41
2019-04-16T00:27:10.846Z,50.12
2019-04-16T00:28:10.854Z,49.89
2019-04-16T00:29:10.909Z,49.99
2019-04-16T00:30:10.840Z,50.03
2019-04-16T00:31:10.886Z,50.03
2019-04-16T00:32:10.823Z,50.15
2019-04-16T00:33:11.549Z,50.33
2019-04-16T00:34:13.226Z,50.39
2019-04-16T00:35:15.345Z,50.27
2019-04-16T00:36:10.833Z,50.37
2019-04-16T00:37:10.862Z,50.36
2019-04-16T00:38:10.844Z,50.49
2019-04-16T00:39:10.821Z,49.97
2019-04-16T00:40:10.853Z,50.3
2019-04-16T00:41:10.862Z,50.48
2019-04-16T00:42:10.864Z,50.23
2019-04-16T00:43:10.827Z,50.13
2019-04-16T00:44:10.800Z,49.98
2019-04-16T00:45:10.869Z,50.03
2019-04-16T00:46:11.432Z,49.85
2019-04-16T00:47:10.791Z,50.08
2019-04-16T00:48:10.985Z,50.16
2019-04-16T00:49:10.883Z,49.92
2019-04-16T00:50:10.793Z,50.07
2019-04-16T00:51:10.823Z,50.21
2019-04-16T00:52:10.857Z,49.84
2019-04-16T00:53:10.835Z,49.94
2019-04-16T00:54:11.351Z,50.06
2019-04-16T00:55:13.550Z,50.06
2019-04-16T00:56:13.361Z,50.12
2019-04-16T00:57:10.807Z,50.06
2019-04-16T00:58:10.907Z,50.12
2019-04-16T00:59:10.802Z,50
2019-04-16T01:00:10.856Z,49.9
2019-04-16T01:01:11.700Z,50.07
2019-04-16T01:02:10.773Z,49.94
2019-04-16T01:03:10.813Z,49.85
2019-04-16T01:04:10.807Z,49.88
2019-04-16T01:05:10.802Z,49.87
2019-04-16T01:06:10.765Z,49.71
2019-04-16T01:07:10.776Z,49.72
2019-04-16T01:08:10.853Z,49.86
2019-04-16T01:09:11.733Z,49.6
2019-04-16T01:10:10.952Z,49.65
2019-04-16T01:11:10.836Z,49.66
2019-04-16T01:12:10.775Z,49.8
2019-04-16T01:13:10.775Z,49.82
2019-04-16T01:14:10.787Z,49.62
2019-04-16T01:15:10.796Z,49.56
2019-04-16T01:16:10.777Z,49.63
2019-04-16T01:17:10.800Z,49.97
2019-04-16T01:18:10.798Z,50
2019-04-16T01:19:13.731Z,49.92
2019-04-16T01:20:12.595Z,49.78
2019-04-16T01:21:13.699Z,49.73
2019-04-16T01:22:13.347Z,49.57
2019-04-16T01:23:10.791Z,49.43
2019-04-16T01:24:10.776Z,49.32
2019-04-16T01:25:10.775Z,49.03
2019-04-16T01:26:10.757Z,49.25
2019-04-16T01:27:10.818Z,49.5
2019-04-16T01:28:10.748Z,49.59
2019-04-16T01:29:10.801Z,49.67
2019-04-16T01:30:10.801Z,49.69
2019-04-16T01:31:10.881Z,49.53
2019-04-16T01:32:12.017Z,49.73
2019-04-16T01:33:14.204Z,49.54
2019-04-16T01:34:10.728Z,49.78
2019-04-16T01:35:10.748Z,49.39
2019-04-16T01:36:10.740Z,49.6
2019-04-16T01:37:10.747Z,49.58
2019-04-16T01:38:10.737Z,49.8
2019-04-16T01:39:17.057Z,49.88
2019-04-16T01:40:10.720Z,49.74
2019-04-16T01:41:10.770Z,49.8
2019-04-16T01:42:10.776Z,49.53
2019-04-16T01:43:11.766Z,49.59
2019-04-16T01:44:10.723Z,49.56
2019-04-16T01:45:10.812Z,49.5
2019-04-16T01:46:10.766Z,49.65
2019-04-16T01:47:10.739Z,49.6
2019-04-16T01:48:10.743Z,49.63
2019-04-16T01:49:11.402Z,49.78
2019-04-16T01:50:13.676Z,49.61
2019-04-16T01:51:12.553Z,49.28
2019-04-16T01:52:10.748Z,49.38
2019-04-16T01:53:11.007Z,49.24
2019-04-16T01:54:10.935Z,49.18
2019-04-16T01:55:10.746Z,49.24
2019-04-16T01:56:10.773Z,49.29
2019-04-16T01:57:10.741Z,49.16
2019-04-16T01:58:10.699Z,49.17
2019-04-16T01:59:10.717Z,49.46
2019-04-16T02:00:10.770Z,49.43
2019-04-16T02:01:11.096Z,49.53
2019-04-16T02:02:14.497Z,49.3
2019-04-16T02:03:10.783Z,49.34
2019-04-16T02:04:10.720Z,49.06
2019-04-16T02:05:10.740Z,48.99
2019-04-16T02:06:10.689Z,49.22
2019-04-16T02:07:10.722Z,49.37
2019-04-16T02:08:10.750Z,49.25
2019-04-16T02:09:21.579Z,49.27
2019-04-16T02:10:10.911Z,49.53
2019-04-16T02:11:11.390Z,49.41
2019-04-16T02:12:13.195Z,49.8
2019-04-16T02:13:14.487Z,49.51
2019-04-16T02:14:10.726Z,49.51
2019-04-16T02:15:10.689Z,49.4
2019-04-16T02:16:10.677Z,49.14
2019-04-16T02:17:10.690Z,48.98
2019-04-16T02:18:10.754Z,49.3
2019-04-16T02:19:10.721Z,49.18
2019-04-16T02:20:10.703Z,49.35
2019-04-16T02:21:11.214Z,49.56
2019-04-16T02:22:13.587Z,49.26
2019-04-16T02:23:13.426Z,49.23
2019-04-16T02:24:10.665Z,49.49
2019-04-16T02:25:10.676Z,49.25
2019-04-16T02:26:10.696Z,49.48
2019-04-16T02:27:10.714Z,49.12
2019-04-16T02:28:10.680Z,48.8
2019-04-16T02:29:10.690Z,49.02
2019-04-16T02:30:10.794Z,49.19
2019-04-16T02:31:15.225Z,49.48
2019-04-16T02:32:10.681Z,49.32
2019-04-16T02:33:10.861Z,49.53
2019-04-16T02:34:10.877Z,49.45
2019-04-16T02:35:10.888Z,49.67
2019-04-16T02:36:10.894Z,49.74
2019-04-16T02:37:10.874Z,49.31
2019-04-16T02:38:13.136Z,49.57
2019-04-16T02:39:10.649Z,49.67
2019-04-16T02:40:16.537Z,49.58
2019-04-16T02:41:10.647Z,49.85
2019-04-16T02:42:10.953Z,49.87
2019-04-16T02:43:10.643Z,49.74
2019-04-16T02:44:15.859Z,49.86
2019-04-16T02:45:10.655Z,50
2019-04-16T02:46:10.651Z,49.73
2019-04-16T02:47:10.649Z,49.92
2019-04-16T02:48:14.477Z,50
2019-04-16T02:49:10.652Z,49.92
2019-04-16T02:50:10.688Z,50.1
2019-04-16T02:51:10.648Z,50.01
2019-04-16T02:52:14.840Z,50.03
2019-04-16T02:53:10.633Z,49.98
2019-04-16T02:54:10.671Z,50.04
2019-04-16T02:55:11.317Z,50.05
2019-04-16T02:56:16.945Z,50.17
2019-04-16T02:57:11.053Z,50.15
2019-04-16T02:58:10.658Z,50.19
2019-04-16T02:59:13.157Z,50.22
2019-04-16T03:00:10.615Z,50.16
2019-04-16T03:01:10.641Z,50.25
2019-04-16T03:02:10.641Z,50.21
2019-04-16T03:03:10.644Z,50.44
2019-04-16T03:04:10.646Z,50.58
2019-04-16T03:05:10.621Z,50.61
2019-04-16T03:06:10.629Z,50.78
2019-04-16T03:07:10.673Z,50.66
2019-04-16T03:08:10.986Z,50.84
2019-04-16T03:09:10.601Z,51.13
2019-04-16T03:10:13.027Z,50.8
2019-04-16T03:11:10.610Z,50.87
2019-04-16T03:12:10.592Z,50.67
2019-04-16T03:13:10.652Z,50.62
2019-04-16T03:14:10.628Z,50.91
2019-04-16T03:15:10.615Z,50.73
2019-04-16T03:16:10.696Z,50.63
2019-04-16T03:17:11.729Z,50.77
2019-04-16T03:18:11.651Z,50.77
2019-04-16T03:19:10.604Z,50.76
2019-04-16T03:20:10.622Z,50.9
2019-04-16T03:21:10.632Z,50.96
2019-04-16T03:22:10.901Z,50.59
2019-04-16T03:23:10.642Z,50.68
2019-04-16T03:24:10.866Z,50.98
2019-04-16T03:25:13.529Z,50.98
2019-04-16T03:26:10.591Z,50.97
2019-04-16T03:27:10.569Z,50.93
2019-04-16T03:28:10.598Z,51.31
2019-04-16T03:29:10.598Z,51.37
2019-04-16T03:30:10.603Z,51.28
2019-04-16T03:31:19.265Z,51.31
2019-04-16T03:32:14.117Z,51.37
2019-04-16T03:33:13.910Z,51.46
2019-04-16T03:34:10.771Z,51.48
2019-04-16T03:35:10.602Z,51.54
2019-04-16T03:36:10.571Z,51.47
2019-04-16T03:37:10.571Z,51.04
2019-04-16T03:38:10.570Z,51.33
2019-04-16T03:39:13.145Z,51.39
2019-04-16T03:40:16.818Z,51.34
2019-04-16T03:41:10.579Z,51.29
2019-04-16T03:42:10.574Z,51.11
2019-04-16T03:43:10.579Z,51.36
2019-04-16T03:44:10.586Z,51.15
2019-04-16T03:45:10.592Z,51.26
2019-04-16T03:46:12.700Z,51.31
2019-04-16T03:47:10.583Z,51.53
2019-04-16T03:48:10.593Z,51.76
2019-04-16T03:49:10.568Z,51.78
2019-04-16T03:50:10.769Z,51.85
2019-04-16T03:51:10.722Z,51.67
2019-04-16T03:52:10.640Z,51.35
2019-04-16T03:53:10.831Z,51.35
2019-04-16T03:54:10.618Z,51.49
2019-04-16T03:55:10.852Z,51.51
2019-04-16T03:56:10.792Z,51.58
2019-04-16T03:57:10.977Z,51.76
2019-04-16T03:58:10.552Z,51.62
2019-04-16T03:59:12.023Z,51.45
2019-04-16T04:00:12.186Z,51.65
2019-04-16T04:01:10.684Z,51.65
2019-04-16T04:02:10.565Z,51.48
2019-04-16T04:03:10.622Z,51.7
2019-04-16T04:04:10.566Z,51.95
2019-04-16T04:05:10.547Z,51.68
2019-04-16T04:06:10.546Z,52.03
2019-04-16T04:07:11.978Z,52.51
2019-04-16T04:08:16.045Z,52.21
2019-04-16T04:09:10.564Z,52.12
2019-04-16T04:10:10.539Z,52.36
2019-04-16T04:11:11.018Z,52.33
2019-04-16T04:12:12.722Z,52.22
2019-04-16T04:13:10.599Z,52.31
2019-04-16T04:14:10.750Z,52.04
2019-04-16T04:15:10.587Z,52.1
2019-04-16T04:16:10.580Z,52.11
2019-04-16T04:17:10.550Z,52.44
2019-04-16T04:18:12.458Z,52.38
2019-04-16T04:19:13.983Z,52.67
2019-04-16T04:20:10.585Z,52.25
2019-04-16T04:21:10.547Z,52.33
2019-04-16T04:22:10.640Z,52.39
2019-04-16T04:23:10.787Z,52.08
2019-04-16T04:24:10.593Z,51.96
2019-04-16T04:25:10.636Z,52.19
2019-04-16T04:26:10.673Z,52.27
2019-04-16T04:27:13.915Z,52.06
2019-04-16T04:28:10.670Z,52.27
2019-04-16T04:29:10.515Z,52.4
2019-04-16T04:30:10.654Z,52.33
2019-04-16T04:31:10.523Z,52.47
2019-04-16T04:32:10.534Z,52.42
2019-04-16T04:33:10.497Z,52.3
2019-04-16T04:34:10.935Z,52.04
2019-04-16T04:35:10.533Z,52.25
2019-04-16T04:36:10.499Z,52.26
2019-04-16T04:37:10.494Z,52.26
2019-04-16T04:38:10.538Z,52.25
2019-04-16T04:39:14.863Z,52.4
2019-04-16T04:40:12.724Z,52.27
2019-04-16T04:41:10.554Z,52.15
2019-04-16T04:42:10.605Z,52.21
2019-04-16T04:43:10.536Z,52.46
2019-04-16T04:44:10.578Z,52.32
2019-04-16T04:45:10.666Z,52.54
2019-04-16T04:46:14.338Z,52.41
2019-04-16T04:47:10.527Z,52.42
2019-04-16T04:48:11.370Z,52.56
2019-04-16T04:49:10.499Z,52.7
2019-04-16T04:50:10.512Z,52.63
2019-04-16T04:51:10.504Z,53.02
2019-04-16T04:52:13.516Z,52.72
2019-04-16T04:53:10.523Z,52.81
2019-04-16T04:54:10.518Z,52.92
2019-04-16T04:55:10.485Z,52.9
2019-04-16T04:56:10.494Z,52.99
2019-04-16T04:57:10.541Z,52.88
2019-04-16T04:58:10.483Z,52.83
2019-04-16T04:59:10.582Z,52.72
2019-04-16T05:00:11.538Z,52.71
2019-04-16T05:01:13.290Z,52.8
2019-04-16T05:02:13.939Z,53.01
2019-04-16T05:03:12.345Z,52.98
2019-04-16T05:04:10.490Z,53.17
2019-04-16T05:05:10.985Z,52.88
2019-04-16T05:06:10.859Z,52.74
2019-04-16T05:07:10.503Z,52.8
2019-04-16T05:08:10.521Z,52.82
2019-04-16T05:09:10.520Z,53.37
2019-04-16T05:10:10.780Z,52.92
2019-04-16T05:11:12.482Z,53.17
2019-04-16T05:12:10.456Z,53.13
2019-04-16T05:13:10.477Z,53.03
2019-04-16T05:14:10.456Z,53.38
2019-04-16T05:15:10.440Z,53.24
2019-04-16T05:16:10.523Z,53.29
2019-04-16T05:17:10.555Z,53.07
2019-04-16T05:18:10.979Z,53.13
2019-04-16T05:19:13.722Z,52.99
2019-04-16T05:20:14.794Z,53.18
2019-04-16T05:21:10.474Z,53.81
2019-04-16T05:22:10.504Z,54.01
2019-04-16T05:23:10.449Z,54
2019-04-16T05:24:10.455Z,53.71
2019-04-16T05:25:10.478Z,53.65
2019-04-16T05:26:10.581Z,53.86
2019-04-16T05:27:10.468Z,53.77
2019-04-16T05:28:11.875Z,53.6
2019-04-16T05:29:10.449Z,53.64
2019-04-16T05:30:10.450Z,53.54
2019-04-16T05:31:10.506Z,53.81
2019-04-16T05:32:10.408Z,53.92
2019-04-16T05:33:10.494Z,53.33
2019-04-16T05:34:10.638Z,53.38
2019-04-16T05:35:10.923Z,53.39
2019-04-16T05:36:10.730Z,53.28
2019-04-16T05:37:10.598Z,53.25
2019-04-16T05:38:10.419Z,53.33
2019-04-16T05:39:10.412Z,53.31
2019-04-16T05:40:10.414Z,53.27
2019-04-16T05:41:13.396Z,53.17
2019-04-16T05:42:10.414Z,53.44
2019-04-16T05:43:10.441Z,53.39
2019-04-16T05:44:10.413Z,53.8
2019-04-16T05:45:10.416Z,53.67
2019-04-16T05:46:10.442Z,53.49
2019-04-16T05:47:10.402Z,53.38
2019-04-16T05:48:11.174Z,53.26
2019-04-16T05:49:11.539Z,53.15
2019-04-16T05:50:10.446Z,53.34
2019-04-16T05:51:10.393Z,53.41
2019-04-16T05:52:10.407Z,53.3
2019-04-16T05:53:12.894Z,53.17
2019-04-16T05:54:11.932Z,53.15
2019-04-16T05:55:10.407Z,53.1
2019-04-16T05:56:10.376Z,52.87
2019-04-16T05:57:10.408Z,52.87
2019-04-16T05:58:10.420Z,53.21
2019-04-16T05:59:10.455Z,53.07
2019-04-16T06:00:10.562Z,53.18
2019-04-16T06:01:13.031Z,52.97
2019-04-16T06:02:10.477Z,53.01
2019-04-16T06:03:10.403Z,53.25
2019-04-16T06:04:10.417Z,53.31
2019-04-16T06:05:10.468Z,52.71
2019-04-16T06:06:10.440Z,52.63
2019-04-16T06:07:10.384Z,52.32
2019-04-16T06:08:10.458Z,52.39
2019-04-16T06:09:12.147Z,52.56
2019-04-16T06:10:10.409Z,52.55
2019-04-16T06:11:10.380Z,52.79
2019-04-16T06:12:10.342Z,52.89
2019-04-16T06:13:12.579Z,52.79
2019-04-16T06:14:10.372Z,52.83
2019-04-16T06:15:10.388Z,53.22
2019-04-16T06:16:10.376Z,52.49
2019-04-16T06:17:10.390Z,52.53
2019-04-16T06:18:10.363Z,52.58
2019-04-16T06:19:11.405Z,52.71
2019-04-16T06:20:10.343Z,52.41
2019-04-16T06:21:10.398Z,52.57
2019-04-16T06:22:10.426Z,52.21
2019-04-16T06:23:10.377Z,52.22
2019-04-16T06:24:10.392Z,52.26
2019-04-16T06:25:11.060Z,52.13
2019-04-16T06:26:14.222Z,52.44
2019-04-16T06:27:10.376Z,52.56
2019-04-16T06:28:10.325Z,52.48
2019-04-16T06:29:10.343Z,52.06
2019-04-16T06:30:10.410Z,52.37
2019-04-16T06:31:10.527Z,52.32
2019-04-16T06:32:12.273Z,52.46
2019-04-16T06:33:10.352Z,52.52
2019-04-16T06:34:10.781Z,52.68
2019-04-16T06:35:11.513Z,52.26
2019-04-16T06:36:10.439Z,52.38
2019-04-16T06:37:10.343Z,52.7
2019-04-16T06:38:10.413Z,52.53
2019-04-16T06:39:10.369Z,52.26
2019-04-16T06:40:10.355Z,52.17
2019-04-16T06:41:10.366Z,52.23
2019-04-16T06:42:10.355Z,52.4
2019-04-16T06:43:10.310Z,52.38
2019-04-16T06:44:10.315Z,52.31
2019-04-16T06:45:10.291Z,52.01
2019-04-16T06:46:10.411Z,52.44
2019-04-16T06:47:11.055Z,52.16
2019-04-16T06:48:13.116Z,52.29
2019-04-16T06:49:10.335Z,52.01
2019-04-16T06:50:10.342Z,52.4
2019-04-16T06:51:12.402Z,52.05
2019-04-16T06:52:15.748Z,52.14
2019-04-16T06:53:10.441Z,51.85
2019-04-16T06:54:11.188Z,51.96
2019-04-16T06:55:10.321Z,51.98
2019-04-16T06:56:10.312Z,51.89
2019-04-16T06:57:12.138Z,51.9
2019-04-16T06:58:12.435Z,52.06
2019-04-16T06:59:10.362Z,52.26
2019-04-16T07:00:10.341Z,52.34
2019-04-16T07:01:10.288Z,52.28
2019-04-16T07:02:11.142Z,52.26
2019-04-16T07:03:10.295Z,52.21
2019-04-16T07:04:10.348Z,52.46
2019-04-16T07:05:10.292Z,52.29
2019-04-16T07:06:10.292Z,52.22
2019-04-16T07:07:10.298Z,52.07
2019-04-16T07:08:10.316Z,51.94
2019-04-16T07:09:10.294Z,51.92
2019-04-16T07:10:10.334Z,51.66
2019-04-16T07:11:10.322Z,51.81
2019-04-16T07:12:10.298Z,51.29
2019-04-16T07:13:11.265Z,51.44
2019-04-16T07:14:11.465Z,51.54
2019-04-16T07:15:10.401Z,51.45
2019-04-16T07:16:10.268Z,51.39
2019-04-16T07:17:10.281Z,51.56
2019-04-16T07:18:10.310Z,51.24
2019-04-16T07:19:11.467Z,51.37
2019-04-16T07:20:12.993Z,51.59
2019-04-16T07:21:10.275Z,51.11
2019-04-16T07:22:10.256Z,51.38
2019-04-16T07:23:10.309Z,51.33
2019-04-16T07:24:10.314Z,51.47
2019-04-16T07:25:10.302Z,51.69
2019-04-16T07:26:13.347Z,51.28
2019-04-16T07:27:11.280Z,51.33
2019-04-16T07:28:10.269Z,51.61
2019-04-16T07:29:10.290Z,51.35
2019-04-16T07:30:10.398Z,51.68
2019-04-16T07:31:13.158Z,51.45
2019-04-16T07:32:10.276Z,51.61
2019-04-16T07:33:10.236Z,51.46
2019-04-16T07:34:10.332Z,51.15
2019-04-16T07:35:10.393Z,51.59
2019-04-16T07:36:10.443Z,51.76
2019-04-16T07:37:10.256Z,51.14
2019-04-16T07:38:11.610Z,51.26
2019-04-16T07:39:13.190Z,51.14
2019-04-16T07:40:10.601Z,51.01
2019-04-16T07:41:11.822Z,50.82
2019-04-16T07:42:12.873Z,50.68
2019-04-16T07:43:10.235Z,50.41
2019-04-16T07:44:11.184Z,50.3
2019-04-16T07:45:12.424Z,49.83
2019-04-16T07:46:10.235Z,49.71
2019-04-16T07:47:10.253Z,49.83
2019-04-16T07:48:10.243Z,50.23
2019-04-16T07:49:10.277Z,50.09
2019-04-16T07:50:10.211Z,49.3
2019-04-16T07:51:10.255Z,50.5
2019-04-16T07:52:11.975Z,50
2019-04-16T07:53:13.118Z,49.63
2019-04-16T07:54:10.207Z,49.42
2019-04-16T07:55:10.542Z,49.21
2019-04-16T07:56:10.289Z,49.47
2019-04-16T07:57:10.281Z,49.21
2019-04-16T07:58:10.588Z,49.76
2019-04-16T07:59:10.268Z,49.58
2019-04-16T08:00:10.276Z,49.47
2019-04-16T08:01:12.191Z,49.61
2019-04-16T08:02:10.232Z,49.7
2019-04-16T08:03:10.210Z,49.76
2019-04-16T08:04:10.251Z,50.25
2019-04-16T08:05:10.273Z,50.08
2019-04-16T08:06:10.603Z,49.69
2019-04-16T08:07:10.197Z,49.33
2019-04-16T08:08:10.234Z,49.37
2019-04-16T08:09:10.205Z,49.44
2019-04-16T08:10:10.212Z,48.77
2019-04-16T08:11:10.216Z,49.17
2019-04-16T08:12:16.508Z,49.24
2019-04-16T08:13:10.349Z,49.39
2019-04-16T08:14:10.446Z,49.62
2019-04-16T08:15:14.121Z,49.14
2019-04-16T08:16:10.194Z,49.41
2019-04-16T08:17:10.184Z,49.82
2019-04-16T08:18:10.202Z,50.99
2019-04-16T08:19:12.139Z,49.88
2019-04-16T08:20:10.656Z,49.53
2019-04-16T08:21:12.365Z,48.78
2019-04-16T08:22:15.362Z,49.36
2019-04-16T08:23:10.239Z,48.87
2019-04-16T08:24:10.235Z,49.65
2019-04-16T08:25:10.174Z,49.4
2019-04-16T08:26:12.815Z,50.02
2019-04-16T08:27:10.866Z,49.85
2019-04-16T08:28:10.237Z,49.96
2019-04-16T08:29:10.422Z,48.95
2019-04-16T08:30:10.158Z,49.26
2019-04-16T08:31:12.153Z,49.23
2019-04-16T08:32:12.730Z,48.6
2019-04-16T08:33:10.952Z,48.48
2019-04-16T08:34:11.063Z,48.71
2019-04-16T08:35:10.241Z,48.82
2019-04-16T08:36:10.178Z,48.78
2019-04-16T08:37:10.185Z,49.18
2019-04-16T08:38:10.193Z,48.42
2019-04-16T08:39:10.256Z,49.1
2019-04-16T08:40:12.158Z,49.65
2019-04-16T08:41:12.649Z,49.22
2019-04-16T08:42:10.151Z,48.97
2019-04-16T08:43:10.159Z,48.52
2019-04-16T08:44:10.745Z,48.29
2019-04-16T08:45:10.407Z,48.89
2019-04-16T08:46:11.469Z,49.95
2019-04-16T08:47:11.885Z,48.52
2019-04-16T08:48:10.314Z,48.39
2019-04-16T08:49:10.192Z,48.22
2019-04-16T08:50:11.991Z,48.38
2019-04-16T08:51:10.216Z,48.62
2019-04-16T08:52:11.095Z,48.55
2019-04-16T08:53:13.247Z,49
2019-04-16T08:54:10.153Z,48.98
2019-04-16T08:55:10.230Z,48.95
2019-04-16T08:56:10.139Z,48.9
2019-04-16T08:57:10.157Z,49.06
2019-04-16T08:58:12.419Z,49.17
2019-04-16T08:59:11.181Z,48.66
2019-04-16T09:00:14.055Z,48.84
2019-04-16T09:01:10.133Z,48.2
2019-04-16T09:02:10.490Z,48.22
2019-04-16T09:03:10.598Z,47.97
2019-04-16T09:05:11.565Z,48.09
2019-04-16T09:06:12.745Z,47.76
2019-04-16T09:07:12.935Z,47.63
2019-04-16T09:08:12.807Z,47.8
2019-04-16T09:09:13.329Z,47.71
2019-04-16T09:10:16.865Z,48.25
2019-04-16T09:11:22.136Z,48.03
2019-04-16T09:12:10.247Z,48.19
2019-04-16T09:13:10.103Z,47.78
2019-04-16T09:14:10.202Z,47.56
2019-04-16T09:15:10.243Z,47.76
2019-04-16T09:16:10.841Z,47.5
2019-04-16T09:17:10.436Z,47.16
2019-04-16T09:18:10.120Z,48.06
2019-04-16T09:19:10.099Z,47.42
2019-04-16T09:20:10.104Z,47.87
2019-04-16T09:21:11.284Z,47.68
2019-04-16T09:22:15.426Z,48.39
2019-04-16T09:23:10.137Z,47.78
2019-04-16T09:24:10.437Z,48.09
2019-04-16T09:25:13.565Z,47.56
2019-04-16T09:26:13.883Z,47.02
2019-04-16T09:27:12.521Z,47.52
2019-04-16T09:28:24.255Z,46.82
2019-04-16T09:29:10.429Z,47.29
2019-04-16T09:30:14.178Z,45.39
2019-04-16T09:31:10.367Z,46.31
2019-04-16T09:32:10.160Z,45.6
2019-04-16T09:33:10.075Z,46.18
2019-04-16T09:34:10.090Z,46.6
2019-04-16T09:35:12.401Z,45.79
2019-04-16T09:36:10.101Z,46.19
2019-04-16T09:37:10.187Z,46.79
2019-04-16T09:38:12.959Z,47.11
2019-04-16T09:39:11.146Z,46.28
2019-04-16T09:40:16.953Z,45.92
2019-04-16T09:41:10.145Z,45.88
2019-04-16T09:42:10.128Z,45.82
2019-04-16T09:43:16.393Z,46.08
2019-04-16T09:44:10.168Z,46.57
2019-04-16T09:45:10.194Z,45.31
2019-04-16T09:46:13.874Z,44.97
2019-04-16T09:47:10.057Z,45.33
2019-04-16T09:48:10.134Z,44.91
2019-04-16T09:49:10.066Z,45.5
2019-04-16T09:50:11.347Z,45.49
2019-04-16T09:51:10.089Z,46.16
2019-04-16T09:52:10.140Z,45.31
2019-04-16T09:53:10.166Z,45.93
2019-04-16T09:54:13.342Z,45.72
2019-04-16T09:55:10.081Z,45.22
2019-04-16T09:56:10.087Z,45.69
2019-04-16T09:57:10.084Z,44.39
2019-04-16T09:58:10.173Z,45.21
2019-04-16T09:59:10.910Z,46.08
2019-04-16T10:00:10.075Z,44.04
2019-04-16T10:01:10.061Z,44.41
2019-04-16T10:02:10.177Z,44.89
2019-04-16T10:03:10.221Z,45.24
2019-04-16T10:04:10.199Z,44.34
2019-04-16T10:05:10.126Z,44.85
2019-04-16T10:06:10.084Z,45.47
2019-04-16T10:07:10.233Z,46.1
2019-04-16T10:08:12.574Z,46.1
2019-04-16T10:09:10.108Z,46.01
2019-04-16T10:10:10.041Z,45.48
2019-04-16T10:11:10.063Z,45.45
2019-04-16T10:12:10.027Z,45.11
2019-04-16T10:13:10.103Z,44.99
2019-04-16T10:14:10.102Z,45.37
2019-04-16T10:15:10.024Z,43.9
2019-04-16T10:16:10.080Z,45.33
2019-04-16T10:17:10.081Z,45.33
2019-04-16T10:18:10.056Z,44.8
2019-04-16T10:19:10.000Z,44.17
2019-04-16T10:20:10.049Z,45.08
2019-04-16T10:21:10.078Z,44.63
2019-04-16T10:22:10.027Z,44.24
2019-04-16T10:23:10.108Z,45.04
2019-04-16T10:24:13.017Z,45
2019-04-16T10:25:10.023Z,45.14
2019-04-16T10:26:10.069Z,44.13
2019-04-16T10:27:10.060Z,43.33
2019-04-16T10:28:10.071Z,44.16
2019-04-16T10:29:10.155Z,44.73
2019-04-16T10:30:10.002Z,44.46
2019-04-16T10:31:10.028Z,44.14
2019-04-16T10:32:10.093Z,45.49
2019-04-16T10:33:10.057Z,44.8
2019-04-16T10:34:10.003Z,44.68
2019-04-16T10:35:10.056Z,43.79
2019-04-16T10:36:10.072Z,44.09
2019-04-16T10:37:10.001Z,44.24
2019-04-16T10:38:10.037Z,43.97
2019-04-16T10:39:10.043Z,44.12
2019-04-16T10:40:10.102Z,43.61
2019-04-16T10:41:10.295Z,44.14
2019-04-16T10:42:10.045Z,44.04
2019-04-16T10:43:10.025Z,44.65
2019-04-16T10:44:09.982Z,44.85
2019-04-16T10:45:10.025Z,43.51
2019-04-16T10:46:10.045Z,43.1
2019-04-16T10:47:12.417Z,43.15
2019-04-16T10:48:10.003Z,43.69
2019-04-16T10:49:10.003Z,44.59
2019-04-16T10:50:10.005Z,44.9
2019-04-16T10:51:15.154Z,43.96
2019-04-16T10:52:09.966Z,44.42
2019-04-16T10:53:10.005Z,42.98
2019-04-16T10:54:09.994Z,43.04
2019-04-16T10:55:12.118Z,44.03
2019-04-16T10:56:10.024Z,43.39
2019-04-16T10:57:10.418Z,43.82
2019-04-16T10:58:10.005Z,43.66
2019-04-16T10:59:10.100Z,42.82
2019-04-16T11:00:09.984Z,42.72
2019-04-16T11:01:10.096Z,43.19
2019-04-16T11:02:10.782Z,43.29
2019-04-16T11:03:09.986Z,42.69
2019-04-16T11:04:10.011Z,42.78
2019-04-16T11:05:09.949Z,42.8
2019-04-16T11:06:09.952Z,42.91
2019-04-16T11:07:10.006Z,42.89
2019-04-16T11:08:10.015Z,42.91
2019-04-16T11:09:09.963Z,43.21
2019-04-16T11:10:11.734Z,43.33
2019-04-16T11:11:09.946Z,44.38
2019-04-16T11:12:09.978Z,44.41
2019-04-16T11:13:10.065Z,44.12
2019-04-16T11:14:09.992Z,44.22
2019-04-16T11:15:09.964Z,43.97
2019-04-16T11:16:09.955Z,43.61
2019-04-16T11:17:09.970Z,44.02
2019-04-16T11:18:10.040Z,42.7
2019-04-16T11:19:09.958Z,42.74
2019-04-16T11:20:09.993Z,42.27
2019-04-16T11:21:10.058Z,42.46
2019-04-16T11:22:09.940Z,42.57
2019-04-16T11:23:10.314Z,42.12
2019-04-16T11:24:10.445Z,42.56
2019-04-16T11:25:10.002Z,42.66
2019-04-16T11:26:09.920Z,42.68
2019-04-16T11:27:09.980Z,42.12
2019-04-16T11:28:10.015Z,41.92
2019-04-16T11:29:10.012Z,43.04
2019-04-16T11:30:10.001Z,43.52
2019-04-16T11:31:09.956Z,44.21
2019-04-16T11:32:09.949Z,44.03
2019-04-16T11:33:10.002Z,43.7
2019-04-16T11:34:09.988Z,43.56
2019-04-16T11:35:12.914Z,43.16
2019-04-16T11:36:18.132Z,43.84
2019-04-16T11:37:09.934Z,44.08
2019-04-16T11:38:10.432Z,42.91
2019-04-16T11:39:09.961Z,42.85
2019-04-16T11:40:09.960Z,42.68
2019-04-16T11:41:09.965Z,42.87
2019-04-16T11:42:09.961Z,43.3
2019-04-16T11:43:09.971Z,42.71
2019-04-16T11:44:15.413Z,43.07
2019-04-16T11:45:10.126Z,42.03
2019-04-16T11:46:09.940Z,42.37
2019-04-16T11:47:09.921Z,42.39
2019-04-16T11:48:09.916Z,42.32
2019-04-16T11:49:09.997Z,42.38
2019-04-16T11:50:09.947Z,42.56
2019-04-16T11:51:10.078Z,43.31
2019-04-16T11:52:09.978Z,43.25
2019-04-16T11:53:10.132Z,43.87
2019-04-16T11:54:11.681Z,43.78
2019-04-16T11:55:10.000Z,44.06
2019-04-16T11:56:09.896Z,43.47
2019-04-16T11:57:12.958Z,42.39
2019-04-16T11:58:09.929Z,42.76
2019-04-16T11:59:10.004Z,43.5
2019-04-16T12:00:09.894Z,42.72
2019-04-16T12:01:09.873Z,42.78
2019-04-16T12:02:09.902Z,41.79
2019-04-16T12:03:10.137Z,43.03
2019-04-16T12:04:10.856Z,42.59
2019-04-16T12:05:10.021Z,43.02
2019-04-16T12:06:09.927Z,43.28
2019-04-16T12:07:10.210Z,43.15
2019-04-16T12:08:09.914Z,43.32
2019-04-16T12:09:09.911Z,42.25
2019-04-16T12:10:09.930Z,42.18
2019-04-16T12:11:09.928Z,42.22
2019-04-16T12:12:09.865Z,42.02
2019-04-16T12:13:09.903Z,41.37
2019-04-16T12:14:10.396Z,41.7
2019-04-16T12:15:09.955Z,41.86
2019-04-16T12:16:10.346Z,42.11
2019-04-16T12:17:09.919Z,41.77
2019-04-16T12:18:09.906Z,41.55
2019-04-16T12:19:09.948Z,41.47
2019-04-16T12:20:09.870Z,41.48
2019-04-16T12:21:10.200Z,41.71
2019-04-16T12:22:09.886Z,41.91
2019-04-16T12:23:09.883Z,42.61
2019-04-16T12:24:09.906Z,42.21
2019-04-16T12:25:09.867Z,42.08
2019-04-16T12:26:10.389Z,41.72
2019-04-16T12:27:09.900Z,41.97
2019-04-16T12:28:12.462Z,41.99
2019-04-16T12:29:10.157Z,41.61
2019-04-16T12:30:10.163Z,42.03
2019-04-16T12:31:09.862Z,41.19
2019-04-16T12:32:09.879Z,41.52
2019-04-16T12:33:13.470Z,42.2
2019-04-16T12:34:09.849Z,42.07
2019-04-16T12:35:10.103Z,42.36
2019-04-16T12:36:12.728Z,42.34
2019-04-16T12:37:10.038Z,42.08
2019-04-16T12:38:12.709Z,42.06
2019-04-16T12:39:09.941Z,41.73
2019-04-16T12:40:09.823Z,42.04
2019-04-16T12:41:09.875Z,42.41
2019-04-16T12:42:09.925Z,41.35
2019-04-16T12:43:14.641Z,41.36
2019-04-16T12:44:09.824Z,42
2019-04-16T12:45:10.073Z,41.7
2019-04-16T12:46:10.035Z,41.22
2019-04-16T12:47:10.030Z,41.36
2019-04-16T12:48:09.929Z,41.28
2019-04-16T12:49:09.898Z,41.85
2019-04-16T12:50:10.203Z,41.01
2019-04-16T12:51:09.880Z,41.45
2019-04-16T12:52:15.205Z,41.24
2019-04-16T12:53:09.895Z,41.01
2019-04-16T12:54:09.938Z,40.9
2019-04-16T12:55:09.858Z,40.39
2019-04-16T12:56:09.916Z,41.03